sensor_id;sensor_type;location;lat;lon;timestamp;temperature;humidity
20610;DHT22;10463;52.378;9.688;2023-07-20T00:01:42;31.00;23.40
20610;DHT22;10463;52.378;9.688;2023-07-20T00:04:29;31.00;23.40
20610;DHT22;10463;52.378;9.688;2023-07-20T00:07:15;31.00;23.40
20610;DHT22;10463;52.378;9.688;2023-07-20T00:10:00;31.00;23.40
20610;DHT22;10463;52.378;9.688;2023-07-20T00:12:44;31.00;23.40
20610;DHT22;10463;52.378;9.688;2023-07-20T00:15:32;31.00;23.40
20610;DHT22;10463;52.378;9.688;2023-07-20T00:18:17;31.00;23.40
20610;DHT22;10463;52.378;9.688;2023-07-20T00:21:01;31.00;23.40
20610;DHT22;10463;52.378;9.688;2023-07-20T00:23:48;31.00;23.40
20610;DHT22;10463;52.378;9.688;2023-07-20T00:26:32;31.00;23.40
20610;DHT22;10463;52.378;9.688;2023-07-20T00:29:18;31.00;23.40
20610;DHT22;10463;52.378;9.688;2023-07-20T00:32:04;31.00;23.40
20610;DHT22;10463;52.378;9.688;2023-07-20T00:34:49;31.00;23.40
20610;DHT22;10463;52.378;9.688;2023-07-20T00:37:34;30.90;23.40
20610;DHT22;10463;52.378;9.688;2023-07-20T00:40:21;30.90;23.40
20610;DHT22;10463;52.378;9.688;2023-07-20T00:43:06;30.90;23.40
20610;DHT22;10463;52.378;9.688;2023-07-20T00:45:51;30.90;23.40
20610;DHT22;10463;52.378;9.688;2023-07-20T00:48:36;30.90;23.40
20610;DHT22;10463;52.378;9.688;2023-07-20T00:51:23;31.00;23.40
20610;DHT22;10463;52.378;9.688;2023-07-20T00:54:09;30.90;23.40
20610;DHT22;10463;52.378;9.688;2023-07-20T00:56:56;30.90;23.40
20610;DHT22;10463;52.378;9.688;2023-07-20T00:59:41;30.90;23.40
20610;DHT22;10463;52.378;9.688;2023-07-20T01:02:26;30.90;23.40
20610;DHT22;10463;52.378;9.688;2023-07-20T01:05:11;30.90;23.40
20610;DHT22;10463;52.378;9.688;2023-07-20T01:07:59;30.90;24.00
20610;DHT22;10463;52.378;9.688;2023-07-20T01:10:53;30.90;23.40
20610;DHT22;10463;52.378;9.688;2023-07-20T01:13:47;30.90;23.50
20610;DHT22;10463;52.378;9.688;2023-07-20T01:16:32;30.90;23.40
20610;DHT22;10463;52.378;9.688;2023-07-20T01:19:17;30.90;23.40
20610;DHT22;10463;52.378;9.688;2023-07-20T01:22:17;30.90;23.50
20610;DHT22;10463;52.378;9.688;2023-07-20T01:25:25;30.90;23.50
20610;DHT22;10463;52.378;9.688;2023-07-20T01:28:37;30.90;23.50
20610;DHT22;10463;52.378;9.688;2023-07-20T01:31:27;30.90;23.50
20610;DHT22;10463;52.378;9.688;2023-07-20T01:34:12;30.80;23.40
20610;DHT22;10463;52.378;9.688;2023-07-20T01:37:01;30.80;23.40
20610;DHT22;10463;52.378;9.688;2023-07-20T01:39:45;30.80;23.40
20610;DHT22;10463;52.378;9.688;2023-07-20T01:42:31;30.80;23.40
20610;DHT22;10463;52.378;9.688;2023-07-20T01:45:16;30.80;23.40
20610;DHT22;10463;52.378;9.688;2023-07-20T01:48:03;30.80;23.40
20610;DHT22;10463;52.378;9.688;2023-07-20T01:50:48;30.80;23.40
20610;DHT22;10463;52.378;9.688;2023-07-20T01:53:34;30.80;23.40
20610;DHT22;10463;52.378;9.688;2023-07-20T01:56:18;30.80;23.40
20610;DHT22;10463;52.378;9.688;2023-07-20T01:59:03;30.80;23.40
20610;DHT22;10463;52.378;9.688;2023-07-20T02:01:49;30.80;23.40
20610;DHT22;10463;52.378;9.688;2023-07-20T02:04:34;30.80;23.40
20610;DHT22;10463;52.378;9.688;2023-07-20T02:07:20;30.80;23.40
20610;DHT22;10463;52.378;9.688;2023-07-20T02:10:06;30.80;23.40
20610;DHT22;10463;52.378;9.688;2023-07-20T02:12:51;30.80;23.40
20610;DHT22;10463;52.378;9.688;2023-07-20T02:15:35;30.80;23.40
20610;DHT22;10463;52.378;9.688;2023-07-20T02:18:20;30.80;23.40
20610;DHT22;10463;52.378;9.688;2023-07-20T02:21:06;30.70;23.40
20610;DHT22;10463;52.378;9.688;2023-07-20T02:23:51;30.70;23.40
20610;DHT22;10463;52.378;9.688;2023-07-20T02:26:35;30.70;23.40
20610;DHT22;10463;52.378;9.688;2023-07-20T02:29:20;30.80;23.40
20610;DHT22;10463;52.378;9.688;2023-07-20T02:32:06;30.80;23.40
20610;DHT22;10463;52.378;9.688;2023-07-20T02:34:52;30.80;23.40
20610;DHT22;10463;52.378;9.688;2023-07-20T02:37:38;30.70;23.40
20610;DHT22;10463;52.378;9.688;2023-07-20T02:40:23;30.70;23.40
20610;DHT22;10463;52.378;9.688;2023-07-20T02:43:08;30.70;23.40
20610;DHT22;10463;52.378;9.688;2023-07-20T02:45:53;30.70;23.40
20610;DHT22;10463;52.378;9.688;2023-07-20T02:48:38;30.70;23.40
20610;DHT22;10463;52.378;9.688;2023-07-20T02:51:23;30.70;23.40
20610;DHT22;10463;52.378;9.688;2023-07-20T02:54:09;30.70;23.40
20610;DHT22;10463;52.378;9.688;2023-07-20T02:56:53;30.70;23.90
20610;DHT22;10463;52.378;9.688;2023-07-20T02:59:38;30.70;23.40
20610;DHT22;10463;52.378;9.688;2023-07-20T03:02:23;30.70;23.40
20610;DHT22;10463;52.378;9.688;2023-07-20T03:05:09;30.70;23.40
20610;DHT22;10463;52.378;9.688;2023-07-20T03:07:55;30.70;23.40
20610;DHT22;10463;52.378;9.688;2023-07-20T03:10:42;30.60;22.90
20610;DHT22;10463;52.378;9.688;2023-07-20T03:13:27;30.60;23.90
20610;DHT22;10463;52.378;9.688;2023-07-20T03:16:13;30.70;23.40
20610;DHT22;10463;52.378;9.688;2023-07-20T03:19:00;30.70;23.40
20610;DHT22;10463;52.378;9.688;2023-07-20T03:21:45;30.70;23.40
20610;DHT22;10463;52.378;9.688;2023-07-20T03:24:29;30.60;23.40
20610;DHT22;10463;52.378;9.688;2023-07-20T03:27:15;30.60;23.40
20610;DHT22;10463;52.378;9.688;2023-07-20T03:30:00;30.60;23.40
20610;DHT22;10463;52.378;9.688;2023-07-20T03:32:45;30.60;23.40
20610;DHT22;10463;52.378;9.688;2023-07-20T03:35:30;30.60;23.40
20610;DHT22;10463;52.378;9.688;2023-07-20T03:38:15;30.60;23.40
20610;DHT22;10463;52.378;9.688;2023-07-20T03:41:00;30.60;23.40
20610;DHT22;10463;52.378;9.688;2023-07-20T03:43:46;30.60;23.40
20610;DHT22;10463;52.378;9.688;2023-07-20T03:46:32;30.60;23.40
20610;DHT22;10463;52.378;9.688;2023-07-20T03:49:19;30.60;23.40
20610;DHT22;10463;52.378;9.688;2023-07-20T03:52:05;30.60;24.00
20610;DHT22;10463;52.378;9.688;2023-07-20T03:54:50;30.60;23.40
20610;DHT22;10463;52.378;9.688;2023-07-20T03:57:36;30.50;23.40
20610;DHT22;10463;52.378;9.688;2023-07-20T04:00:22;30.50;23.40
20610;DHT22;10463;52.378;9.688;2023-07-20T04:03:08;30.50;23.40
20610;DHT22;10463;52.378;9.688;2023-07-20T04:05:53;30.50;23.40
20610;DHT22;10463;52.378;9.688;2023-07-20T04:08:39;30.50;23.40
20610;DHT22;10463;52.378;9.688;2023-07-20T04:11:24;30.50;23.40
20610;DHT22;10463;52.378;9.688;2023-07-20T04:14:08;30.50;23.40
20610;DHT22;10463;52.378;9.688;2023-07-20T04:16:55;30.50;23.40
20610;DHT22;10463;52.378;9.688;2023-07-20T04:19:40;30.50;23.40
20610;DHT22;10463;52.378;9.688;2023-07-20T04:22:25;30.50;23.40
20610;DHT22;10463;52.378;9.688;2023-07-20T04:25:10;30.50;23.40
20610;DHT22;10463;52.378;9.688;2023-07-20T04:27:55;30.50;23.40
20610;DHT22;10463;52.378;9.688;2023-07-20T04:30:39;30.50;23.40
20610;DHT22;10463;52.378;9.688;2023-07-20T04:33:26;30.50;23.90
20610;DHT22;10463;52.378;9.688;2023-07-20T04:36:13;30.50;23.40
20610;DHT22;10463;52.378;9.688;2023-07-20T04:39:00;30.50;23.40
20610;DHT22;10463;52.378;9.688;2023-07-20T04:41:52;30.50;23.40
20610;DHT22;10463;52.378;9.688;2023-07-20T04:44:37;30.50;23.40
20610;DHT22;10463;52.378;9.688;2023-07-20T04:47:22;30.50;23.90
20610;DHT22;10463;52.378;9.688;2023-07-20T04:50:10;30.50;23.40
20610;DHT22;10463;52.378;9.688;2023-07-20T04:52:55;30.50;23.40
20610;DHT22;10463;52.378;9.688;2023-07-20T04:55:47;30.50;23.40
20610;DHT22;10463;52.378;9.688;2023-07-20T04:58:35;30.40;23.40
20610;DHT22;10463;52.378;9.688;2023-07-20T05:01:19;30.40;23.40
20610;DHT22;10463;52.378;9.688;2023-07-20T05:04:04;30.40;23.40
20610;DHT22;10463;52.378;9.688;2023-07-20T05:06:51;30.40;23.40
20610;DHT22;10463;52.378;9.688;2023-07-20T05:09:36;30.40;23.40
20610;DHT22;10463;52.378;9.688;2023-07-20T05:12:21;30.40;24.00
20610;DHT22;10463;52.378;9.688;2023-07-20T05:15:07;30.40;23.40
20610;DHT22;10463;52.378;9.688;2023-07-20T05:17:54;30.40;23.40
20610;DHT22;10463;52.378;9.688;2023-07-20T05:20:38;30.40;23.50
20610;DHT22;10463;52.378;9.688;2023-07-20T05:23:25;30.40;23.50
20610;DHT22;10463;52.378;9.688;2023-07-20T05:26:10;30.40;23.50
20610;DHT22;10463;52.378;9.688;2023-07-20T05:28:54;30.40;23.50
20610;DHT22;10463;52.378;9.688;2023-07-20T05:31:39;30.40;23.50
20610;DHT22;10463;52.378;9.688;2023-07-20T05:34:24;30.40;23.50
20610;DHT22;10463;52.378;9.688;2023-07-20T05:37:09;30.40;23.50
20610;DHT22;10463;52.378;9.688;2023-07-20T05:39:55;30.40;23.50
20610;DHT22;10463;52.378;9.688;2023-07-20T05:42:39;30.40;23.60
20610;DHT22;10463;52.378;9.688;2023-07-20T05:45:24;30.40;23.60
20610;DHT22;10463;52.378;9.688;2023-07-20T05:48:09;30.40;23.60
20610;DHT22;10463;52.378;9.688;2023-07-20T05:50:57;30.40;23.60
20610;DHT22;10463;52.378;9.688;2023-07-20T05:53:42;30.40;23.60
20610;DHT22;10463;52.378;9.688;2023-07-20T05:56:28;30.40;23.60
20610;DHT22;10463;52.378;9.688;2023-07-20T05:59:13;30.40;23.70
20610;DHT22;10463;52.378;9.688;2023-07-20T06:01:58;30.40;23.70
20610;DHT22;10463;52.378;9.688;2023-07-20T06:04:42;30.30;23.60
20610;DHT22;10463;52.378;9.688;2023-07-20T06:07:27;30.30;23.60
20610;DHT22;10463;52.378;9.688;2023-07-20T06:10:12;30.40;23.70
20610;DHT22;10463;52.378;9.688;2023-07-20T06:12:58;30.40;23.70
20610;DHT22;10463;52.378;9.688;2023-07-20T06:15:42;30.30;23.70
20610;DHT22;10463;52.378;9.688;2023-07-20T06:18:27;30.30;23.70
20610;DHT22;10463;52.378;9.688;2023-07-20T06:21:12;30.30;23.70
20610;DHT22;10463;52.378;9.688;2023-07-20T06:23:57;30.30;23.70
20610;DHT22;10463;52.378;9.688;2023-07-20T06:26:43;30.30;23.70
20610;DHT22;10463;52.378;9.688;2023-07-20T06:29:29;30.30;23.70
20610;DHT22;10463;52.378;9.688;2023-07-20T06:32:13;30.30;23.70
20610;DHT22;10463;52.378;9.688;2023-07-20T06:34:58;30.30;23.70
20610;DHT22;10463;52.378;9.688;2023-07-20T06:37:43;30.30;23.70
20610;DHT22;10463;52.378;9.688;2023-07-20T06:40:27;30.30;23.70
20610;DHT22;10463;52.378;9.688;2023-07-20T06:43:12;30.30;23.70
20610;DHT22;10463;52.378;9.688;2023-07-20T06:45:58;30.30;23.70
20610;DHT22;10463;52.378;9.688;2023-07-20T06:48:43;30.30;23.80
20610;DHT22;10463;52.378;9.688;2023-07-20T06:51:27;30.30;23.80
20610;DHT22;10463;52.378;9.688;2023-07-20T06:54:12;30.30;23.80
20610;DHT22;10463;52.378;9.688;2023-07-20T06:56:56;30.30;23.80
20610;DHT22;10463;52.378;9.688;2023-07-20T06:59:41;30.30;23.80
20610;DHT22;10463;52.378;9.688;2023-07-20T07:02:27;30.30;23.80
20610;DHT22;10463;52.378;9.688;2023-07-20T07:05:12;30.30;23.80
20610;DHT22;10463;52.378;9.688;2023-07-20T07:07:59;30.30;23.80
20610;DHT22;10463;52.378;9.688;2023-07-20T07:10:44;30.30;23.80
20610;DHT22;10463;52.378;9.688;2023-07-20T07:13:28;30.30;23.90
20610;DHT22;10463;52.378;9.688;2023-07-20T07:16:13;30.30;23.80
20610;DHT22;10463;52.378;9.688;2023-07-20T07:19:04;30.30;23.90
20610;DHT22;10463;52.378;9.688;2023-07-20T07:21:50;30.30;23.90
20610;DHT22;10463;52.378;9.688;2023-07-20T07:24:35;30.30;23.90
20610;DHT22;10463;52.378;9.688;2023-07-20T07:27:20;30.30;23.80
20610;DHT22;10463;52.378;9.688;2023-07-20T07:30:07;30.30;23.80
20610;DHT22;10463;52.378;9.688;2023-07-20T07:32:51;30.30;23.80
20610;DHT22;10463;52.378;9.688;2023-07-20T07:35:39;30.30;23.80
20610;DHT22;10463;52.378;9.688;2023-07-20T07:38:24;30.30;23.90
20610;DHT22;10463;52.378;9.688;2023-07-20T07:41:08;30.30;23.90
20610;DHT22;10463;52.378;9.688;2023-07-20T07:43:53;30.30;23.90
20610;DHT22;10463;52.378;9.688;2023-07-20T07:46:38;30.30;23.90
20610;DHT22;10463;52.378;9.688;2023-07-20T07:49:22;30.30;24.40
20610;DHT22;10463;52.378;9.688;2023-07-20T07:52:09;30.30;23.90
20610;DHT22;10463;52.378;9.688;2023-07-20T07:54:53;30.30;23.80
20610;DHT22;10463;52.378;9.688;2023-07-20T07:57:38;30.30;23.80
20610;DHT22;10463;52.378;9.688;2023-07-20T08:00:23;30.30;23.80
20610;DHT22;10463;52.378;9.688;2023-07-20T08:03:08;30.30;23.80
20610;DHT22;10463;52.378;9.688;2023-07-20T08:05:54;30.30;23.90
20610;DHT22;10463;52.378;9.688;2023-07-20T08:08:46;30.30;23.80
20610;DHT22;10463;52.378;9.688;2023-07-20T08:11:30;30.30;23.80
20610;DHT22;10463;52.378;9.688;2023-07-20T08:14:17;30.30;23.80
20610;DHT22;10463;52.378;9.688;2023-07-20T08:17:04;30.30;23.80
20610;DHT22;10463;52.378;9.688;2023-07-20T08:19:49;30.30;23.80
20610;DHT22;10463;52.378;9.688;2023-07-20T08:22:34;30.30;24.30
20610;DHT22;10463;52.378;9.688;2023-07-20T08:25:20;30.30;23.80
20610;DHT22;10463;52.378;9.688;2023-07-20T08:28:05;30.30;23.80
20610;DHT22;10463;52.378;9.688;2023-07-20T08:30:50;30.30;23.80
20610;DHT22;10463;52.378;9.688;2023-07-20T08:33:34;30.30;23.80
20610;DHT22;10463;52.378;9.688;2023-07-20T08:36:19;30.30;23.80
20610;DHT22;10463;52.378;9.688;2023-07-20T08:39:04;30.30;23.80
20610;DHT22;10463;52.378;9.688;2023-07-20T08:41:50;30.30;23.80
20610;DHT22;10463;52.378;9.688;2023-07-20T08:44:39;30.30;23.80
20610;DHT22;10463;52.378;9.688;2023-07-20T08:47:26;30.30;23.70
20610;DHT22;10463;52.378;9.688;2023-07-20T08:50:11;30.30;23.70
20610;DHT22;10463;52.378;9.688;2023-07-20T08:52:59;30.30;23.70
20610;DHT22;10463;52.378;9.688;2023-07-20T08:55:45;30.30;23.70
20610;DHT22;10463;52.378;9.688;2023-07-20T08:58:34;30.30;23.70
20610;DHT22;10463;52.378;9.688;2023-07-20T09:01:20;30.30;23.70
20610;DHT22;10463;52.378;9.688;2023-07-20T09:04:05;30.30;23.70
20610;DHT22;10463;52.378;9.688;2023-07-20T09:06:50;30.30;23.70
20610;DHT22;10463;52.378;9.688;2023-07-20T09:09:40;30.30;23.70
20610;DHT22;10463;52.378;9.688;2023-07-20T09:12:26;30.30;23.70
20610;DHT22;10463;52.378;9.688;2023-07-20T09:15:13;30.30;23.60
20610;DHT22;10463;52.378;9.688;2023-07-20T09:20:52;30.30;23.60
20610;DHT22;10463;52.378;9.688;2023-07-20T09:23:38;30.30;23.60
20610;DHT22;10463;52.378;9.688;2023-07-20T09:26:25;30.30;23.60
20610;DHT22;10463;52.378;9.688;2023-07-20T09:29:10;30.30;23.60
20610;DHT22;10463;52.378;9.688;2023-07-20T09:32:00;30.30;23.60
20610;DHT22;10463;52.378;9.688;2023-07-20T09:34:50;30.30;23.60
20610;DHT22;10463;52.378;9.688;2023-07-20T09:40:24;30.30;23.60
20610;DHT22;10463;52.378;9.688;2023-07-20T09:43:09;30.30;23.60
20610;DHT22;10463;52.378;9.688;2023-07-20T09:45:58;30.30;23.60
20610;DHT22;10463;52.378;9.688;2023-07-20T09:48:51;30.30;24.10
20610;DHT22;10463;52.378;9.688;2023-07-20T09:51:38;30.30;23.50
20610;DHT22;10463;52.378;9.688;2023-07-20T09:54:24;30.30;23.50
20610;DHT22;10463;52.378;9.688;2023-07-20T09:57:11;30.30;23.50
20610;DHT22;10463;52.378;9.688;2023-07-20T09:59:58;30.40;23.60
20610;DHT22;10463;52.378;9.688;2023-07-20T10:02:45;30.30;23.50
20610;DHT22;10463;52.378;9.688;2023-07-20T10:05:33;30.40;23.60
20610;DHT22;10463;52.378;9.688;2023-07-20T10:08:20;30.30;23.50
20610;DHT22;10463;52.378;9.688;2023-07-20T10:11:08;30.40;23.50
20610;DHT22;10463;52.378;9.688;2023-07-20T10:13:59;30.40;23.50
20610;DHT22;10463;52.378;9.688;2023-07-20T10:16:50;30.40;23.60
20610;DHT22;10463;52.378;9.688;2023-07-20T10:19:43;30.40;23.60
20610;DHT22;10463;52.378;9.688;2023-07-20T10:22:36;30.40;23.60
20610;DHT22;10463;52.378;9.688;2023-07-20T10:25:22;30.40;23.60
20610;DHT22;10463;52.378;9.688;2023-07-20T10:28:07;30.40;23.60
20610;DHT22;10463;52.378;9.688;2023-07-20T10:30:53;30.40;23.50
20610;DHT22;10463;52.378;9.688;2023-07-20T10:33:38;30.40;23.50
20610;DHT22;10463;52.378;9.688;2023-07-20T10:36:25;30.40;23.50
20610;DHT22;10463;52.378;9.688;2023-07-20T10:39:22;30.40;23.50
20610;DHT22;10463;52.378;9.688;2023-07-20T10:42:10;30.40;23.60
20610;DHT22;10463;52.378;9.688;2023-07-20T10:44:55;30.40;23.50
20610;DHT22;10463;52.378;9.688;2023-07-20T10:47:46;30.40;23.50
20610;DHT22;10463;52.378;9.688;2023-07-20T10:50:32;30.40;23.50
20610;DHT22;10463;52.378;9.688;2023-07-20T10:53:19;30.40;23.50
20610;DHT22;10463;52.378;9.688;2023-07-20T10:56:11;30.40;23.50
20610;DHT22;10463;52.378;9.688;2023-07-20T10:58:58;30.40;23.50
20610;DHT22;10463;52.378;9.688;2023-07-20T11:01:44;30.50;24.10
20610;DHT22;10463;52.378;9.688;2023-07-20T11:04:38;30.50;23.50
20610;DHT22;10463;52.378;9.688;2023-07-20T11:07:37;30.50;23.50
20610;DHT22;10463;52.378;9.688;2023-07-20T11:10:25;30.50;23.60
20610;DHT22;10463;52.378;9.688;2023-07-20T11:13:23;30.50;23.50
20610;DHT22;10463;52.378;9.688;2023-07-20T11:16:08;30.50;23.50
20610;DHT22;10463;52.378;9.688;2023-07-20T11:18:53;30.50;23.50
20610;DHT22;10463;52.378;9.688;2023-07-20T11:21:42;30.50;23.60
20610;DHT22;10463;52.378;9.688;2023-07-20T11:24:27;30.50;24.10
20610;DHT22;10463;52.378;9.688;2023-07-20T11:27:11;30.50;23.60
20610;DHT22;10463;52.378;9.688;2023-07-20T11:29:57;30.50;23.60
20610;DHT22;10463;52.378;9.688;2023-07-20T11:32:48;30.50;23.50
20610;DHT22;10463;52.378;9.688;2023-07-20T11:35:35;30.50;23.50
20610;DHT22;10463;52.378;9.688;2023-07-20T11:38:21;30.60;23.60
20610;DHT22;10463;52.378;9.688;2023-07-20T11:41:05;30.60;23.60
20610;DHT22;10463;52.378;9.688;2023-07-20T11:43:50;30.60;23.50
20610;DHT22;10463;52.378;9.688;2023-07-20T11:46:36;30.60;24.10
20610;DHT22;10463;52.378;9.688;2023-07-20T11:49:21;30.60;24.00
20610;DHT22;10463;52.378;9.688;2023-07-20T11:52:08;30.60;23.20
20610;DHT22;10463;52.378;9.688;2023-07-20T11:54:53;30.60;22.90
20610;DHT22;10463;52.378;9.688;2023-07-20T11:57:37;30.50;22.50
20610;DHT22;10463;52.378;9.688;2023-07-20T12:00:25;30.50;22.30
20610;DHT22;10463;52.378;9.688;2023-07-20T12:03:14;30.50;22.20
20610;DHT22;10463;52.378;9.688;2023-07-20T12:06:07;30.40;22.10
20610;DHT22;10463;52.378;9.688;2023-07-20T12:08:55;30.40;22.00
20610;DHT22;10463;52.378;9.688;2023-07-20T12:11:44;30.40;21.80
20610;DHT22;10463;52.378;9.688;2023-07-20T12:14:32;30.40;21.80
20610;DHT22;10463;52.378;9.688;2023-07-20T12:17:16;30.40;21.80
20610;DHT22;10463;52.378;9.688;2023-07-20T12:20:04;30.30;21.50
20610;DHT22;10463;52.378;9.688;2023-07-20T12:22:50;30.30;21.10
20610;DHT22;10463;52.378;9.688;2023-07-20T12:25:39;30.20;21.00
20610;DHT22;10463;52.378;9.688;2023-07-20T12:28:25;30.20;21.10
20610;DHT22;10463;52.378;9.688;2023-07-20T12:31:11;30.10;21.00
20610;DHT22;10463;52.378;9.688;2023-07-20T12:33:58;30.10;21.00
20610;DHT22;10463;52.378;9.688;2023-07-20T12:36:45;30.00;21.00
20610;DHT22;10463;52.378;9.688;2023-07-20T12:39:29;30.00;21.10
20610;DHT22;10463;52.378;9.688;2023-07-20T12:42:14;30.00;21.20
20610;DHT22;10463;52.378;9.688;2023-07-20T12:45:03;29.90;21.30
20610;DHT22;10463;52.378;9.688;2023-07-20T12:47:48;29.90;21.40
20610;DHT22;10463;52.378;9.688;2023-07-20T12:50:33;29.90;21.40
20610;DHT22;10463;52.378;9.688;2023-07-20T12:53:19;29.90;21.40
20610;DHT22;10463;52.378;9.688;2023-07-20T12:56:05;29.90;21.30
20610;DHT22;10463;52.378;9.688;2023-07-20T12:58:49;29.90;21.20
20610;DHT22;10463;52.378;9.688;2023-07-20T13:01:34;29.80;21.00
20610;DHT22;10463;52.378;9.688;2023-07-20T13:04:19;29.80;20.90
20610;DHT22;10463;52.378;9.688;2023-07-20T13:07:04;29.80;21.00
20610;DHT22;10463;52.378;9.688;2023-07-20T13:09:50;29.80;20.90
20610;DHT22;10463;52.378;9.688;2023-07-20T13:12:36;29.70;20.70
20610;DHT22;10463;52.378;9.688;2023-07-20T13:15:24;29.70;20.50
20610;DHT22;10463;52.378;9.688;2023-07-20T13:18:09;29.70;20.40
20610;DHT22;10463;52.378;9.688;2023-07-20T13:20:54;29.70;20.40
20610;DHT22;10463;52.378;9.688;2023-07-20T13:23:38;29.70;20.50
20610;DHT22;10463;52.378;9.688;2023-07-20T13:26:24;29.70;20.70
20610;DHT22;10463;52.378;9.688;2023-07-20T13:29:09;29.70;20.50
20610;DHT22;10463;52.378;9.688;2023-07-20T13:31:54;29.70;20.40
20610;DHT22;10463;52.378;9.688;2023-07-20T13:34:38;29.70;20.20
20610;DHT22;10463;52.378;9.688;2023-07-20T13:37:24;29.60;19.90
20610;DHT22;10463;52.378;9.688;2023-07-20T13:40:09;29.60;19.70
20610;DHT22;10463;52.378;9.688;2023-07-20T13:42:58;29.60;19.80
20610;DHT22;10463;52.378;9.688;2023-07-20T13:45:43;29.50;19.90
20610;DHT22;10463;52.378;9.688;2023-07-20T13:48:28;29.50;20.10
20610;DHT22;10463;52.378;9.688;2023-07-20T13:51:12;29.50;20.30
20610;DHT22;10463;52.378;9.688;2023-07-20T13:53:57;29.50;20.50
20610;DHT22;10463;52.378;9.688;2023-07-20T13:56:42;29.50;20.70
20610;DHT22;10463;52.378;9.688;2023-07-20T13:59:28;29.60;20.90
20610;DHT22;10463;52.378;9.688;2023-07-20T14:02:14;29.60;21.00
20610;DHT22;10463;52.378;9.688;2023-07-20T14:04:59;29.60;21.10
20610;DHT22;10463;52.378;9.688;2023-07-20T14:07:44;29.60;21.20
20610;DHT22;10463;52.378;9.688;2023-07-20T14:10:29;29.60;21.30
20610;DHT22;10463;52.378;9.688;2023-07-20T14:13:13;29.60;21.30
20610;DHT22;10463;52.378;9.688;2023-07-20T14:15:59;29.70;21.40
20610;DHT22;10463;52.378;9.688;2023-07-20T14:18:44;29.70;21.40
20610;DHT22;10463;52.378;9.688;2023-07-20T14:21:31;29.70;21.50
20610;DHT22;10463;52.378;9.688;2023-07-20T14:24:17;29.80;21.60
20610;DHT22;10463;52.378;9.688;2023-07-20T14:27:02;29.80;21.60
20610;DHT22;10463;52.378;9.688;2023-07-20T14:29:47;29.80;21.60
20610;DHT22;10463;52.378;9.688;2023-07-20T14:32:33;29.80;21.60
20610;DHT22;10463;52.378;9.688;2023-07-20T14:35:18;29.80;21.60
20610;DHT22;10463;52.378;9.688;2023-07-20T14:38:03;29.90;21.70
20610;DHT22;10463;52.378;9.688;2023-07-20T14:40:48;29.90;21.70
20610;DHT22;10463;52.378;9.688;2023-07-20T14:43:33;29.90;21.70
20610;DHT22;10463;52.378;9.688;2023-07-20T14:46:18;29.90;21.80
20610;DHT22;10463;52.378;9.688;2023-07-20T14:49:04;29.90;21.80
20610;DHT22;10463;52.378;9.688;2023-07-20T14:51:48;30.00;21.80
20610;DHT22;10463;52.378;9.688;2023-07-20T14:54:34;30.00;21.80
20610;DHT22;10463;52.378;9.688;2023-07-20T14:57:18;30.00;21.80
20610;DHT22;10463;52.378;9.688;2023-07-20T15:00:04;30.00;21.90
20610;DHT22;10463;52.378;9.688;2023-07-20T15:02:54;30.10;21.90
20610;DHT22;10463;52.378;9.688;2023-07-20T15:05:41;30.10;21.90
20610;DHT22;10463;52.378;9.688;2023-07-20T15:08:27;30.10;21.90
20610;DHT22;10463;52.378;9.688;2023-07-20T15:11:12;30.10;21.90
20610;DHT22;10463;52.378;9.688;2023-07-20T15:13:57;30.20;21.90
20610;DHT22;10463;52.378;9.688;2023-07-20T15:16:42;30.20;21.90
20610;DHT22;10463;52.378;9.688;2023-07-20T15:19:28;30.20;21.90
20610;DHT22;10463;52.378;9.688;2023-07-20T15:22:14;30.20;21.90
20610;DHT22;10463;52.378;9.688;2023-07-20T15:24:58;30.20;21.90
20610;DHT22;10463;52.378;9.688;2023-07-20T15:27:43;30.20;21.90
20610;DHT22;10463;52.378;9.688;2023-07-20T15:30:28;30.30;22.00
20610;DHT22;10463;52.378;9.688;2023-07-20T15:33:13;30.30;21.90
20610;DHT22;10463;52.378;9.688;2023-07-20T15:35:58;30.30;21.90
20610;DHT22;10463;52.378;9.688;2023-07-20T15:38:44;30.30;21.90
20610;DHT22;10463;52.378;9.688;2023-07-20T15:41:29;30.30;21.90
20610;DHT22;10463;52.378;9.688;2023-07-20T15:44:13;30.30;21.90
20610;DHT22;10463;52.378;9.688;2023-07-20T15:46:58;30.40;21.90
20610;DHT22;10463;52.378;9.688;2023-07-20T15:49:43;30.40;21.90
20610;DHT22;10463;52.378;9.688;2023-07-20T15:52:28;30.40;21.90
20610;DHT22;10463;52.378;9.688;2023-07-20T15:55:14;30.40;21.90
20610;DHT22;10463;52.378;9.688;2023-07-20T15:57:59;30.40;21.90
20610;DHT22;10463;52.378;9.688;2023-07-20T16:00:44;30.40;21.80
20610;DHT22;10463;52.378;9.688;2023-07-20T16:03:29;30.40;21.80
20610;DHT22;10463;52.378;9.688;2023-07-20T16:06:13;30.40;21.80
20610;DHT22;10463;52.378;9.688;2023-07-20T16:08:58;30.50;21.80
20610;DHT22;10463;52.378;9.688;2023-07-20T16:11:45;30.50;21.80
20610;DHT22;10463;52.378;9.688;2023-07-20T16:14:29;30.50;21.80
20610;DHT22;10463;52.378;9.688;2023-07-20T16:17:14;30.50;21.80
20610;DHT22;10463;52.378;9.688;2023-07-20T16:19:59;30.50;21.80
20610;DHT22;10463;52.378;9.688;2023-07-20T16:22:44;30.50;21.80
20610;DHT22;10463;52.378;9.688;2023-07-20T16:25:29;30.50;21.80
20610;DHT22;10463;52.378;9.688;2023-07-20T16:28:16;30.50;21.80
20610;DHT22;10463;52.378;9.688;2023-07-20T16:31:09;30.50;21.80
20610;DHT22;10463;52.378;9.688;2023-07-20T16:33:54;30.50;21.80
20610;DHT22;10463;52.378;9.688;2023-07-20T16:36:39;30.50;21.80
20610;DHT22;10463;52.378;9.688;2023-07-20T16:39:26;30.50;21.80
20610;DHT22;10463;52.378;9.688;2023-07-20T16:42:11;30.50;21.80
20610;DHT22;10463;52.378;9.688;2023-07-20T16:44:58;30.50;21.80
20610;DHT22;10463;52.378;9.688;2023-07-20T16:47:43;30.50;21.80
20610;DHT22;10463;52.378;9.688;2023-07-20T16:50:27;30.50;21.80
20610;DHT22;10463;52.378;9.688;2023-07-20T16:53:12;30.60;21.90
20610;DHT22;10463;52.378;9.688;2023-07-20T16:55:57;30.60;21.90
20610;DHT22;10463;52.378;9.688;2023-07-20T16:58:41;30.50;21.80
20610;DHT22;10463;52.378;9.688;2023-07-20T17:01:27;30.60;21.90
20610;DHT22;10463;52.378;9.688;2023-07-20T17:04:12;30.60;21.90
20610;DHT22;10463;52.378;9.688;2023-07-20T17:06:59;30.60;21.90
20610;DHT22;10463;52.378;9.688;2023-07-20T17:09:44;30.60;21.90
20610;DHT22;10463;52.378;9.688;2023-07-20T17:12:30;30.60;21.90
20610;DHT22;10463;52.378;9.688;2023-07-20T17:15:14;30.60;21.90
20610;DHT22;10463;52.378;9.688;2023-07-20T17:18:03;30.60;21.90
20610;DHT22;10463;52.378;9.688;2023-07-20T17:20:48;30.60;21.90
20610;DHT22;10463;52.378;9.688;2023-07-20T17:23:34;30.70;21.90
20610;DHT22;10463;52.378;9.688;2023-07-20T17:26:19;30.60;21.90
20610;DHT22;10463;52.378;9.688;2023-07-20T17:29:03;30.60;21.80
20610;DHT22;10463;52.378;9.688;2023-07-20T17:31:49;30.60;21.80
20610;DHT22;10463;52.378;9.688;2023-07-20T17:34:35;30.70;21.90